createdAt,value
2023-01-08T00:01:45.169Z,26.20
2023-01-08T00:04:13.453Z,26.67
2023-01-08T00:06:41.530Z,26.08
2023-01-08T00:09:10.803Z,27.20
2023-01-08T00:11:38.845Z,26.95
2023-01-08T00:14:11.596Z,27.02
2023-01-08T00:16:39.646Z,27.52
2023-01-08T00:19:07.705Z,27.00
2023-01-08T00:21:35.709Z,26.65
2023-01-08T00:24:03.843Z,26.73
2023-01-08T00:26:32.028Z,26.67
2023-01-08T00:29:00.097Z,27.50
2023-01-08T00:31:29.510Z,27.60
2023-01-08T00:33:57.652Z,26.92
2023-01-08T00:36:25.906Z,28.33
2023-01-08T00:38:54.127Z,27.90
2023-01-08T00:41:22.350Z,28.27
2023-01-08T00:43:50.480Z,27.52
2023-01-08T00:46:18.858Z,27.77
2023-01-08T00:48:51.254Z,27.40
2023-01-08T00:51:19.134Z,27.98
2023-01-08T00:53:47.192Z,26.98
2023-01-08T00:56:15.142Z,28.70
2023-01-08T00:58:44.915Z,27.23
2023-01-08T01:01:15.405Z,28.42
2023-01-08T01:03:43.891Z,27.77
2023-01-08T01:06:15.140Z,27.65
2023-01-08T01:08:44.242Z,28.63
2023-01-08T01:11:21.253Z,28.52
2023-01-08T01:13:49.876Z,28.25
2023-01-08T01:16:18.394Z,28.77
2023-01-08T01:18:46.528Z,30.05
2023-01-08T01:21:23.381Z,30.35
2023-01-08T01:23:51.760Z,30.38
2023-01-08T01:26:21.399Z,30.45
2023-01-08T01:28:53.045Z,30.77
2023-01-08T01:31:21.814Z,29.55
2023-01-08T01:33:50.962Z,28.60
2023-01-08T01:36:23.593Z,28.75
2023-01-08T01:38:53.172Z,28.95
2023-01-08T01:41:28.338Z,28.20
2023-01-08T01:43:58.441Z,27.92
2023-01-08T01:46:38.884Z,28.75
2023-01-08T01:49:10.813Z,28.65
2023-01-08T01:51:45.183Z,28.05
2023-01-08T01:54:16.678Z,28.13
2023-01-08T01:56:49.666Z,27.80
2023-01-08T01:59:18.463Z,27.95
2023-01-08T02:01:49.216Z,27.92
2023-01-08T02:04:17.996Z,27.55
2023-01-08T02:07:00.764Z,27.75
2023-01-08T02:09:43.729Z,28.17
2023-01-08T02:12:19.496Z,28.10
2023-01-08T02:14:59.148Z,28.77
2023-01-08T02:17:36.823Z,28.13
2023-01-08T02:20:12.824Z,28.70
2023-01-08T02:22:55.233Z,29.42
2023-01-08T02:25:40.424Z,28.70
2023-01-08T02:28:14.009Z,29.65
2023-01-08T02:30:43.140Z,28.88
2023-01-08T02:33:14.558Z,29.27
2023-01-08T02:35:46.289Z,28.45
2023-01-08T02:38:17.589Z,28.40
2023-01-08T02:40:58.640Z,28.13
2023-01-08T02:43:35.957Z,27.45
2023-01-08T02:46:05.229Z,26.83
2023-01-08T02:48:41.133Z,26.88
2023-01-08T02:51:15.735Z,27.05
2023-01-08T02:53:46.523Z,27.52
2023-01-08T02:56:18.896Z,27.00
2023-01-08T02:58:50.613Z,26.60
2023-01-08T03:01:20.002Z,26.42
2023-01-08T03:03:53.684Z,26.63
2023-01-08T03:06:23.970Z,26.80
2023-01-08T03:08:54.040Z,27.45
2023-01-08T03:11:24.381Z,25.45
2023-01-08T03:14:01.905Z,26.90
2023-01-08T03:16:36.860Z,25.63
2023-01-08T03:19:15.851Z,27.23
2023-01-08T03:21:46.058Z,27.15
2023-01-08T03:24:16.237Z,28.50
2023-01-08T03:26:47.419Z,28.25
2023-01-08T03:29:21.243Z,26.95
2023-01-08T03:31:51.357Z,27.50
2023-01-08T03:34:20.440Z,27.27
2023-01-08T03:36:51.602Z,26.98
2023-01-08T03:39:25.521Z,27.98
2023-01-08T03:41:55.740Z,28.35
2023-01-08T03:44:25.760Z,28.48
2023-01-08T03:46:56.774Z,28.55
2023-01-08T03:49:27.600Z,29.08
2023-01-08T03:51:56.049Z,28.73
2023-01-08T03:54:30.231Z,28.58
2023-01-08T03:57:01.688Z,28.63
2023-01-08T03:59:31.508Z,28.85
2023-01-08T04:01:59.848Z,28.23
2023-01-08T04:04:30.118Z,28.02
2023-01-08T04:06:58.203Z,29.08
2023-01-08T04:09:28.386Z,28.25
2023-01-08T04:11:56.622Z,28.17
2023-01-08T04:14:27.651Z,27.60
2023-01-08T04:16:57.407Z,27.45
2023-01-08T04:19:25.764Z,26.77
2023-01-08T04:21:54.472Z,28.08
2023-01-08T04:24:22.782Z,27.10
2023-01-08T04:26:50.936Z,27.42
2023-01-08T04:29:19.087Z,28.17
2023-01-08T04:31:47.203Z,27.67
2023-01-08T04:34:17.151Z,27.60
2023-01-08T04:36:45.471Z,27.65
2023-01-08T04:39:13.908Z,28.15
2023-01-08T04:41:42.084Z,27.83
2023-01-08T04:44:11.141Z,28.30
2023-01-08T04:46:42.088Z,27.83
2023-01-08T04:49:11.147Z,27.88
2023-01-08T04:51:44.151Z,28.70
2023-01-08T04:54:12.339Z,29.05
2023-01-08T04:56:40.820Z,28.80
2023-01-08T04:59:08.838Z,29.52
2023-01-08T05:01:38.689Z,28.80
2023-01-08T05:04:07.328Z,28.55
2023-01-08T05:06:37.067Z,28.48
2023-01-08T05:09:06.718Z,28.70
2023-01-08T05:11:37.739Z,28.75
2023-01-08T05:14:06.339Z,28.27
2023-01-08T05:16:35.582Z,27.90
2023-01-08T05:19:03.760Z,27.75
2023-01-08T05:21:33.838Z,27.98
2023-01-08T05:24:02.169Z,27.60
2023-01-08T05:26:31.780Z,27.85
2023-01-08T05:29:01.654Z,28.08
2023-01-08T05:31:31.133Z,27.85
2023-01-08T05:34:00.936Z,26.40
2023-01-08T05:36:31.034Z,27.38
2023-01-08T05:38:59.429Z,26.60
2023-01-08T05:41:29.300Z,26.25
2023-01-08T05:43:58.997Z,26.42
2023-01-08T05:46:29.021Z,26.48
2023-01-08T05:48:58.497Z,26.08
2023-01-08T05:51:26.695Z,26.45
2023-01-08T05:53:54.780Z,26.40
2023-01-08T05:56:25.841Z,26.45
2023-01-08T05:58:56.022Z,26.98
2023-01-08T06:01:25.651Z,26.60
2023-01-08T06:03:56.497Z,27.15
2023-01-08T06:06:27.764Z,27.60
2023-01-08T06:08:56.064Z,26.83
2023-01-08T06:11:24.376Z,27.15
2023-01-08T06:13:52.785Z,27.80
2023-01-08T06:16:21.179Z,28.08
2023-01-08T06:18:54.061Z,27.27
2023-01-08T06:21:25.190Z,27.67
2023-01-08T06:23:53.290Z,28.25
2023-01-08T06:26:21.641Z,28.55
2023-01-08T06:28:49.804Z,27.40
2023-01-08T06:31:17.915Z,27.73
2023-01-08T06:33:46.015Z,27.27
2023-01-08T06:36:15.639Z,27.77
2023-01-08T06:38:43.675Z,28.20
2023-01-08T06:41:12.718Z,28.42
2023-01-08T06:43:41.060Z,26.92
2023-01-08T06:46:10.681Z,27.20
2023-01-08T06:48:41.695Z,26.48
2023-01-08T06:51:09.960Z,26.77
2023-01-08T06:53:39.514Z,27.67
2023-01-08T06:56:10.858Z,27.23
2023-01-08T06:58:41.102Z,26.65
2023-01-08T07:01:13.156Z,27.52
2023-01-08T07:03:41.354Z,26.00
2023-01-08T07:06:14.097Z,26.52
2023-01-08T07:08:43.409Z,26.05
2023-01-08T07:11:11.490Z,25.98
2023-01-08T07:13:39.476Z,25.65
2023-01-08T07:16:08.330Z,25.13
2023-01-08T07:18:36.648Z,25.33
2023-01-08T07:21:04.743Z,25.13
2023-01-08T07:23:33.173Z,26.05
2023-01-08T07:26:03.033Z,25.15
2023-01-08T07:28:31.344Z,25.57
2023-01-08T07:30:59.496Z,25.50
2023-01-08T07:33:27.764Z,25.17
2023-01-08T07:35:56.539Z,23.80
2023-01-08T07:38:24.906Z,24.80
2023-01-08T07:40:53.301Z,24.48
2023-01-08T07:43:22.949Z,24.02
2023-01-08T07:45:51.185Z,24.17
2023-01-08T07:48:19.886Z,24.45
2023-01-08T07:50:47.943Z,24.67
2023-01-08T07:53:17.301Z,24.77
2023-01-08T07:55:45.414Z,24.17
2023-01-08T07:58:15.631Z,24.63
2023-01-08T08:00:45.018Z,24.17
2023-01-08T08:03:13.169Z,25.40
2023-01-08T08:05:41.613Z,24.10
2023-01-08T08:08:10.818Z,23.43
2023-01-08T08:10:40.185Z,23.90
2023-01-08T08:13:08.483Z,22.70
2023-01-08T08:15:37.880Z,23.10
2023-01-08T08:18:10.335Z,22.67
2023-01-08T08:20:41.552Z,23.90
2023-01-08T08:23:13.011Z,23.15
2023-01-08T08:25:41.232Z,24.33
2023-01-08T08:28:10.688Z,22.33
2023-01-08T08:30:42.369Z,22.60
2023-01-08T08:33:12.533Z,22.38
2023-01-08T08:35:43.285Z,22.40
2023-01-08T08:38:11.589Z,22.38
2023-01-08T08:40:44.262Z,22.67
2023-01-08T08:43:12.390Z,22.60
2023-01-08T08:45:40.508Z,22.20
2023-01-08T08:48:09.645Z,21.77
2023-01-08T08:50:41.719Z,22.15
2023-01-08T08:53:11.189Z,22.77
2023-01-08T08:55:39.652Z,21.83
2023-01-08T08:58:11.046Z,23.02
2023-01-08T09:00:39.770Z,23.93
2023-01-08T09:03:08.343Z,23.10
2023-01-08T09:05:43.169Z,22.02
2023-01-08T09:08:11.644Z,22.20
2023-01-08T09:10:43.515Z,23.15
2023-01-08T09:13:11.763Z,22.42
2023-01-08T09:15:40.224Z,22.30
2023-01-08T09:18:08.798Z,22.40
2023-01-08T09:20:39.252Z,21.77
2023-01-08T09:23:08.142Z,22.13
2023-01-08T09:25:36.587Z,22.50
2023-01-08T09:28:06.492Z,21.97
2023-01-08T09:30:34.926Z,21.42
2023-01-08T09:33:15.662Z,23.00
2023-01-08T09:35:46.430Z,22.23
2023-01-08T09:38:14.592Z,22.23
2023-01-08T09:40:47.753Z,22.60
2023-01-08T09:43:19.507Z,22.15
2023-01-08T09:45:54.937Z,22.17
2023-01-08T09:48:28.789Z,22.38
2023-01-08T09:50:59.183Z,23.23
2023-01-08T09:53:28.285Z,22.10
2023-01-08T09:56:15.279Z,21.88
2023-01-08T09:58:45.966Z,21.65
2023-01-08T10:01:17.281Z,23.08
2023-01-08T10:03:48.639Z,22.23
2023-01-08T10:06:18.920Z,22.17
2023-01-08T10:08:47.555Z,21.52
2023-01-08T10:11:17.083Z,20.95
2023-01-08T10:13:49.191Z,21.38
2023-01-08T10:16:24.109Z,22.08
2023-01-08T10:18:52.212Z,21.50
2023-01-08T10:21:25.074Z,23.60
2023-01-08T10:23:54.887Z,22.10
2023-01-08T10:26:31.109Z,20.85
2023-01-08T10:29:10.529Z,21.45
2023-01-08T10:31:49.974Z,21.50
2023-01-08T10:34:27.744Z,21.92
2023-01-08T10:36:58.038Z,21.13
2023-01-08T10:39:31.032Z,21.08
2023-01-08T10:42:06.502Z,21.02
2023-01-08T10:44:35.960Z,20.60
2023-01-08T10:47:05.815Z,20.58
2023-01-08T10:49:37.661Z,20.80
2023-01-08T10:52:07.929Z,20.35
2023-01-08T10:54:38.827Z,20.55
2023-01-08T10:57:21.799Z,20.00
2023-01-08T10:59:50.040Z,21.08
2023-01-08T11:02:24.488Z,19.30
2023-01-08T11:04:53.880Z,20.27
2023-01-08T11:07:25.449Z,19.70
2023-01-08T11:09:54.139Z,20.38
2023-01-08T11:12:35.681Z,19.70
2023-01-08T11:15:09.107Z,19.05
2023-01-08T11:17:51.193Z,19.60
2023-01-08T11:20:23.443Z,18.55
2023-01-08T11:22:53.044Z,19.65
2023-01-08T11:25:28.973Z,18.52
2023-01-08T11:27:58.136Z,18.77
2023-01-08T11:30:32.337Z,19.58
2023-01-08T11:33:06.215Z,18.90
2023-01-08T11:35:42.333Z,19.73
2023-01-08T11:38:14.534Z,19.20
2023-01-08T11:40:51.682Z,18.67
2023-01-08T11:43:28.990Z,18.90
2023-01-08T11:46:21.795Z,19.27
2023-01-08T11:49:12.556Z,20.63
2023-01-08T11:51:54.510Z,20.40
2023-01-08T11:54:39.665Z,21.33
2023-01-08T11:57:22.838Z,20.85
2023-01-08T12:00:04.288Z,20.92
2023-01-08T12:02:49.370Z,20.75
2023-01-08T12:05:31.278Z,21.98
2023-01-08T12:08:06.907Z,21.95
2023-01-08T12:10:51.914Z,22.05
2023-01-08T12:13:38.507Z,22.67
2023-01-08T12:16:20.038Z,20.77
2023-01-08T12:19:16.466Z,21.15
2023-01-08T12:21:57.018Z,21.63
2023-01-08T12:24:46.963Z,20.08
2023-01-08T12:27:34.614Z,20.92
2023-01-08T12:30:23.619Z,21.67
2023-01-08T12:32:58.119Z,21.92
2023-01-08T12:35:30.473Z,21.33
2023-01-08T12:38:03.291Z,22.15
2023-01-08T12:40:35.157Z,20.55
2023-01-08T12:43:10.900Z,22.15
2023-01-08T12:45:44.755Z,21.58
2023-01-08T12:48:16.816Z,22.60
2023-01-08T12:50:54.957Z,21.17
2023-01-08T12:53:32.719Z,22.55
2023-01-08T12:56:06.715Z,21.92
2023-01-08T12:58:45.495Z,21.45
2023-01-08T13:01:25.163Z,20.08
2023-01-08T13:03:55.081Z,21.17
2023-01-08T13:06:23.985Z,20.55
2023-01-08T13:08:53.943Z,21.42
2023-01-08T13:11:31.155Z,20.70
2023-01-08T13:14:03.242Z,19.90
2023-01-08T13:16:39.528Z,20.63
2023-01-08T13:19:09.494Z,19.73
2023-01-08T13:21:40.372Z,20.67
2023-01-08T13:24:28.812Z,21.25
2023-01-08T13:26:57.831Z,21.55
2023-01-08T13:29:43.592Z,22.40
2023-01-08T13:32:42.886Z,20.38
2023-01-08T13:35:26.512Z,20.65
2023-01-08T13:38:13.541Z,21.27
2023-01-08T13:41:01.318Z,21.38
2023-01-08T13:43:31.830Z,21.55
2023-01-08T13:46:16.297Z,19.45
2023-01-08T13:48:51.494Z,19.70
2023-01-08T13:51:48.667Z,19.90
2023-01-08T13:54:35.540Z,20.88
2023-01-08T13:57:07.345Z,19.55
2023-01-08T13:59:41.234Z,19.80
2023-01-08T14:02:27.996Z,20.13
2023-01-08T14:04:56.816Z,18.95
2023-01-08T14:07:25.672Z,21.05
2023-01-08T14:09:54.117Z,20.08
2023-01-08T14:12:24.319Z,21.52
2023-01-08T14:14:55.272Z,21.15
2023-01-08T14:17:30.585Z,19.00
2023-01-08T14:19:58.978Z,18.85
2023-01-08T14:22:32.021Z,19.27
2023-01-08T14:25:03.841Z,17.42
2023-01-08T14:27:32.848Z,18.48
2023-01-08T14:30:00.930Z,18.50
2023-01-08T14:32:32.247Z,19.08
2023-01-08T14:35:01.260Z,19.38
2023-01-08T14:37:29.863Z,20.17
2023-01-08T14:39:57.974Z,19.38
2023-01-08T14:42:47.112Z,20.00
2023-01-08T14:45:20.284Z,19.20
2023-01-08T14:47:51.577Z,18.33
2023-01-08T14:50:22.284Z,19.23
2023-01-08T14:52:51.929Z,18.23
2023-01-08T14:55:22.686Z,18.83
2023-01-08T14:57:53.372Z,18.92
2023-01-08T15:00:25.669Z,18.13
2023-01-08T15:02:55.450Z,19.27
2023-01-08T15:05:29.156Z,19.80
2023-01-08T15:08:01.011Z,20.30
2023-01-08T15:10:40.797Z,20.48
2023-01-08T15:13:23.089Z,20.42
2023-01-08T15:15:57.726Z,19.85
2023-01-08T15:18:28.004Z,20.27
2023-01-08T15:20:56.267Z,21.35
2023-01-08T15:23:28.708Z,22.30
2023-01-08T15:25:57.722Z,20.35
2023-01-08T15:28:26.758Z,20.13
2023-01-08T15:30:55.115Z,19.95
2023-01-08T15:33:24.614Z,20.95
2023-01-08T15:35:54.080Z,21.77
2023-01-08T15:38:23.751Z,21.17
2023-01-08T15:40:53.190Z,20.65
2023-01-08T15:43:20.261Z,20.75
2023-01-08T15:45:50.404Z,20.27
2023-01-08T15:48:18.961Z,21.02
2023-01-08T15:50:47.283Z,21.30
2023-01-08T15:53:23.409Z,21.38
2023-01-08T15:55:52.290Z,21.02
2023-01-08T15:58:20.371Z,21.13
2023-01-08T16:00:49.006Z,21.33
2023-01-08T16:03:17.413Z,21.25
2023-01-08T16:05:45.472Z,20.30
2023-01-08T16:08:13.465Z,19.13
2023-01-08T16:10:43.000Z,20.10
2023-01-08T16:13:12.175Z,19.33
2023-01-08T16:15:40.692Z,21.20
2023-01-08T16:18:08.594Z,20.73
2023-01-08T16:20:36.815Z,19.80
2023-01-08T16:23:04.874Z,19.15
2023-01-08T16:25:33.019Z,19.23
2023-01-08T16:28:03.484Z,19.60
2023-01-08T16:30:31.652Z,19.20
2023-01-08T16:32:59.852Z,18.90
2023-01-08T16:35:28.257Z,19.90
2023-01-08T16:37:57.662Z,19.83
2023-01-08T16:40:25.851Z,20.40
2023-01-08T16:42:53.918Z,19.88
2023-01-08T16:45:29.904Z,19.55
2023-01-08T16:47:57.907Z,21.20
2023-01-08T16:50:25.807Z,21.63
2023-01-08T16:52:53.844Z,20.75
2023-01-08T16:55:22.144Z,20.52
2023-01-08T16:57:50.178Z,20.58
2023-01-08T17:00:19.024Z,19.70
2023-01-08T17:02:48.418Z,18.88
2023-01-08T17:05:16.946Z,19.95
2023-01-08T17:07:45.015Z,18.00
2023-01-08T17:10:13.149Z,20.17
2023-01-08T17:12:41.153Z,19.92
2023-01-08T17:15:09.990Z,19.63
2023-01-08T17:17:38.342Z,21.48
2023-01-08T17:20:09.198Z,21.33
2023-01-08T17:22:37.448Z,21.73
2023-01-08T17:25:06.028Z,20.33
2023-01-08T17:27:36.504Z,22.77
2023-01-08T17:30:04.852Z,23.17
2023-01-08T17:32:33.128Z,23.08
2023-01-08T17:35:01.550Z,23.80
2023-01-08T17:37:32.318Z,23.20
2023-01-08T17:40:01.396Z,22.63
2023-01-08T17:42:30.231Z,22.90
2023-01-08T17:45:01.226Z,23.02
2023-01-08T17:47:29.451Z,23.45
2023-01-08T17:49:58.750Z,23.92
2023-01-08T17:52:27.482Z,24.60
2023-01-08T17:54:56.984Z,24.83
2023-01-08T17:57:26.529Z,24.40
2023-01-08T17:59:54.632Z,24.83
2023-01-08T18:02:22.768Z,24.13
2023-01-08T18:04:50.962Z,25.05
2023-01-08T18:07:19.330Z,23.13
2023-01-08T18:09:49.371Z,23.98
2023-01-08T18:12:18.800Z,23.23
2023-01-08T18:14:46.873Z,23.90
2023-01-08T18:17:15.045Z,23.90
2023-01-08T18:19:43.122Z,23.20
2023-01-08T18:22:11.419Z,22.98
2023-01-08T18:24:39.370Z,23.00
2023-01-08T18:27:08.994Z,22.95
2023-01-08T18:29:41.066Z,22.15
2023-01-08T18:32:09.216Z,21.60
2023-01-08T18:34:39.156Z,22.80
2023-01-08T18:37:07.572Z,23.17
2023-01-08T18:39:35.650Z,23.42
2023-01-08T18:42:21.094Z,23.35
2023-01-08T18:44:52.672Z,22.85
2023-01-08T18:47:20.742Z,22.27
2023-01-08T18:49:48.754Z,22.60
2023-01-08T18:52:17.359Z,22.92
2023-01-08T18:54:45.380Z,22.48
2023-01-08T18:57:13.539Z,22.27
2023-01-08T18:59:43.945Z,22.42
2023-01-08T19:02:19.403Z,22.15
2023-01-08T19:04:47.881Z,23.50
2023-01-08T19:07:16.066Z,22.38
2023-01-08T19:09:44.693Z,22.60
2023-01-08T19:12:12.954Z,22.00
2023-01-08T19:14:41.350Z,22.27
2023-01-08T19:17:09.403Z,22.40
2023-01-08T19:19:41.145Z,21.83
2023-01-08T19:22:09.660Z,22.42
2023-01-08T19:24:38.326Z,22.73
2023-01-08T19:27:06.701Z,22.08
2023-01-08T19:29:34.872Z,22.23
2023-01-08T19:32:04.279Z,22.50
2023-01-08T19:34:32.671Z,22.48
2023-01-08T19:37:05.751Z,22.80
2023-01-08T19:39:33.995Z,23.50
2023-01-08T19:42:19.596Z,24.23
2023-01-08T19:44:51.385Z,23.67
2023-01-08T19:47:19.768Z,21.58
2023-01-08T19:49:49.083Z,21.92
2023-01-08T19:52:19.053Z,23.13
2023-01-08T19:54:47.733Z,22.95
2023-01-08T19:57:16.344Z,22.48
2023-01-08T19:59:44.754Z,22.88
2023-01-08T20:02:13.589Z,22.08
2023-01-08T20:04:43.509Z,23.83
2023-01-08T20:07:11.907Z,23.08
2023-01-08T20:09:42.450Z,24.65
2023-01-08T20:12:31.118Z,23.15
2023-01-08T20:14:59.782Z,25.42
2023-01-08T20:17:28.083Z,24.83
2023-01-08T20:19:56.184Z,24.90
2023-01-08T20:22:25.103Z,23.63
2023-01-08T20:24:57.582Z,24.30
2023-01-08T20:27:27.286Z,24.30
2023-01-08T20:29:55.651Z,23.88
2023-01-08T20:32:23.851Z,24.42
2023-01-08T20:34:52.048Z,24.15
2023-01-08T20:37:22.532Z,24.85
2023-01-08T20:39:52.299Z,25.30
2023-01-08T20:42:34.004Z,25.50
2023-01-08T20:45:02.817Z,25.77
2023-01-08T20:47:42.654Z,25.98
2023-01-08T20:50:19.957Z,28.10
2023-01-08T20:52:55.675Z,28.38
2023-01-08T20:56:01.107Z,27.42
2023-01-08T20:58:31.061Z,27.60
2023-01-08T21:01:13.764Z,27.40
2023-01-08T21:07:36.734Z,28.17
2023-01-08T21:13:36.593Z,27.38
2023-01-08T21:16:10.842Z,28.73
2023-01-08T21:18:44.053Z,28.63
2023-01-08T21:21:13.501Z,26.88
2023-01-08T21:23:42.287Z,28.20
2023-01-08T21:26:12.664Z,26.98
2023-01-08T21:28:43.040Z,27.77
2023-01-08T21:31:15.000Z,27.92
2023-01-08T21:33:48.734Z,28.20
2023-01-08T21:36:18.808Z,27.25
2023-01-08T21:38:47.205Z,27.23
2023-01-08T21:41:36.924Z,27.48
2023-01-08T21:44:32.182Z,28.35
2023-01-08T21:47:01.951Z,27.50
2023-01-08T21:49:33.747Z,27.55
2023-01-08T21:52:19.312Z,27.90
2023-01-08T21:54:47.887Z,27.55
2023-01-08T21:57:17.331Z,28.38
2023-01-08T21:59:49.636Z,26.67
2023-01-08T22:02:21.172Z,25.98
2023-01-08T22:04:49.764Z,26.10
2023-01-08T22:07:18.791Z,25.98
2023-01-08T22:09:47.147Z,25.88
2023-01-08T22:12:16.571Z,25.58
2023-01-08T22:14:47.510Z,25.15
2023-01-08T22:17:16.114Z,25.50
2023-01-08T22:19:44.256Z,25.00
2023-01-08T22:22:12.985Z,25.05
2023-01-08T22:24:41.208Z,25.73
2023-01-08T22:27:09.635Z,25.27
2023-01-08T22:29:41.199Z,25.20
2023-01-08T22:32:11.444Z,24.90
2023-01-08T22:34:39.629Z,25.17
2023-01-08T22:37:10.181Z,24.58
2023-01-08T22:39:38.657Z,25.35
2023-01-08T22:42:06.913Z,24.77
2023-01-08T22:44:35.284Z,24.55
2023-01-08T22:47:05.995Z,25.63
2023-01-08T22:49:35.701Z,25.45
2023-01-08T22:52:08.767Z,26.05
2023-01-08T22:54:36.673Z,25.08
2023-01-08T22:57:04.692Z,25.80
2023-01-08T22:59:32.899Z,26.20
2023-01-08T23:02:02.534Z,26.52
2023-01-08T23:04:30.666Z,25.48
2023-01-08T23:07:00.256Z,26.17
2023-01-08T23:09:28.426Z,26.08
2023-01-08T23:11:59.244Z,25.55
2023-01-08T23:14:27.690Z,25.40
2023-01-08T23:16:55.842Z,26.27
2023-01-08T23:19:24.414Z,25.85
2023-01-08T23:21:52.754Z,26.08
2023-01-08T23:24:30.282Z,26.27
2023-01-08T23:27:00.663Z,26.35
2023-01-08T23:29:29.972Z,26.00
2023-01-08T23:32:03.933Z,26.13
2023-01-08T23:34:33.336Z,26.30
2023-01-08T23:37:06.425Z,25.33
2023-01-08T23:39:36.710Z,26.38
2023-01-08T23:42:06.097Z,27.08
2023-01-08T23:44:43.921Z,27.13
2023-01-08T23:49:56.055Z,27.35
2023-01-08T23:52:25.283Z,26.95
2023-01-08T23:54:57.142Z,27.42
2023-01-08T23:57:33.484Z,27.75
